createdAt,value
2023-04-16T00:00:50.767Z,10.80
2023-04-16T00:03:17.667Z,10.79
2023-04-16T00:05:44.454Z,10.84
2023-04-16T00:08:11.349Z,10.89
2023-04-16T00:10:38.408Z,10.76
2023-04-16T00:13:05.143Z,10.79
2023-04-16T00:15:31.911Z,10.68
2023-04-16T00:17:58.728Z,10.29
2023-04-16T00:20:25.405Z,10.30
2023-04-16T00:22:52.162Z,10.42
2023-04-16T00:25:18.743Z,10.39
2023-04-16T00:27:45.471Z,10.37
2023-04-16T00:30:12.422Z,10.38
2023-04-16T00:32:39.327Z,10.24
2023-04-16T00:35:06.656Z,10.33
2023-04-16T00:37:33.434Z,10.40
2023-04-16T00:40:01.167Z,10.35
2023-04-16T00:42:28.161Z,10.32
2023-04-16T00:44:55.315Z,10.31
2023-04-16T00:47:22.415Z,10.19
2023-04-16T00:49:49.367Z,10.37
2023-04-16T00:52:16.313Z,10.34
2023-04-16T00:54:43.326Z,10.29
2023-04-16T00:57:10.805Z,10.30
2023-04-16T00:59:37.731Z,10.30
2023-04-16T01:02:04.751Z,10.27
2023-04-16T01:04:31.804Z,10.21
2023-04-16T01:06:58.569Z,10.20
2023-04-16T01:09:25.260Z,10.17
2023-04-16T01:11:52.113Z,10.13
2023-04-16T01:14:18.800Z,10.09
2023-04-16T01:16:45.602Z,10.08
2023-04-16T01:19:22.521Z,10.04
2023-04-16T01:21:51.715Z,10.02
2023-04-16T01:24:18.383Z,9.96
2023-04-16T01:26:45.220Z,9.93
2023-04-16T01:29:11.985Z,9.93
2023-04-16T01:31:38.811Z,9.98
2023-04-16T01:34:34.778Z,9.93
2023-04-16T01:37:01.608Z,9.89
2023-04-16T01:39:28.273Z,9.82
2023-04-16T01:41:57.182Z,9.88
2023-04-16T01:44:24.264Z,9.83
2023-04-16T01:46:51.396Z,9.70
2023-04-16T01:49:18.240Z,9.67
2023-04-16T01:51:45.100Z,9.76
2023-04-16T01:54:11.823Z,9.76
2023-04-16T01:56:39.722Z,9.79
2023-04-16T01:59:06.692Z,9.81
2023-04-16T02:01:38.922Z,9.75
2023-04-16T02:04:06.689Z,9.54
2023-04-16T02:06:33.492Z,9.52
2023-04-16T02:09:01.882Z,9.50
2023-04-16T02:11:28.733Z,9.43
2023-04-16T02:13:56.184Z,9.51
2023-04-16T02:16:22.972Z,9.47
2023-04-16T02:18:57.228Z,9.22
2023-04-16T02:21:26.011Z,9.26
2023-04-16T02:23:53.316Z,9.27
2023-04-16T02:26:26.659Z,9.26
2023-04-16T02:28:55.571Z,9.24
2023-04-16T02:31:28.707Z,9.23
2023-04-16T02:33:57.390Z,9.18
2023-04-16T02:36:24.456Z,9.18
2023-04-16T02:38:51.581Z,9.19
2023-04-16T02:41:18.213Z,9.18
2023-04-16T02:43:45.086Z,9.18
2023-04-16T02:46:11.958Z,9.06
2023-04-16T02:48:39.292Z,9.06
2023-04-16T02:51:06.126Z,9.03
2023-04-16T02:53:33.105Z,9.04
2023-04-16T02:55:59.794Z,9.00
2023-04-16T02:58:26.787Z,8.98
2023-04-16T03:00:54.379Z,8.95
2023-04-16T03:03:21.938Z,8.85
2023-04-16T03:05:48.821Z,8.92
2023-04-16T03:08:16.621Z,8.95
2023-04-16T03:10:43.322Z,9.00
2023-04-16T03:13:10.064Z,8.99
2023-04-16T03:15:36.898Z,8.98
2023-04-16T03:18:03.828Z,8.90
2023-04-16T03:20:30.582Z,8.75
2023-04-16T03:22:57.384Z,8.83
2023-04-16T03:25:24.076Z,8.81
2023-04-16T03:27:51.432Z,8.79
2023-04-16T03:30:18.611Z,8.90
2023-04-16T03:32:45.560Z,8.92
2023-04-16T03:35:12.736Z,8.87
2023-04-16T03:37:39.688Z,8.81
2023-04-16T03:40:07.356Z,8.88
2023-04-16T03:42:34.497Z,8.85
2023-04-16T03:45:02.404Z,8.77
2023-04-16T03:47:29.656Z,8.75
2023-04-16T03:49:59.803Z,8.73
2023-04-16T03:52:28.230Z,8.71
2023-04-16T03:54:56.956Z,8.53
2023-04-16T03:57:28.713Z,8.60
2023-04-16T04:00:01.206Z,8.54
2023-04-16T04:02:46.016Z,8.47
2023-04-16T04:05:18.673Z,8.35
2023-04-16T04:07:46.800Z,8.34
2023-04-16T04:10:14.618Z,8.43
2023-04-16T04:12:42.107Z,8.49
2023-04-16T04:15:09.642Z,8.32
2023-04-16T04:17:36.373Z,8.28
2023-04-16T04:20:03.729Z,8.30
2023-04-16T04:22:31.637Z,8.33
2023-04-16T04:24:58.353Z,8.32
2023-04-16T04:27:27.414Z,8.28
2023-04-16T04:29:54.525Z,8.21
2023-04-16T04:32:22.254Z,8.16
2023-04-16T04:34:49.362Z,8.19
2023-04-16T04:37:16.119Z,8.26
2023-04-16T04:39:43.512Z,8.20
2023-04-16T04:42:12.502Z,8.17
2023-04-16T04:44:39.768Z,8.08
2023-04-16T04:47:08.081Z,7.98
2023-04-16T04:49:35.448Z,8.04
2023-04-16T04:52:03.329Z,7.98
2023-04-16T04:54:32.660Z,7.90
2023-04-16T04:56:59.634Z,7.83
2023-04-16T04:59:26.383Z,7.80
2023-04-16T05:01:53.627Z,7.81
2023-04-16T05:04:20.376Z,7.80
2023-04-16T05:06:47.172Z,7.78
2023-04-16T05:09:13.832Z,7.81
2023-04-16T05:11:42.267Z,7.96
2023-04-16T05:14:09.129Z,7.96
2023-04-16T05:16:37.151Z,7.93
2023-04-16T05:19:04.211Z,7.93
2023-04-16T05:21:31.575Z,8.04
2023-04-16T05:23:58.911Z,8.15
2023-04-16T05:26:25.621Z,8.17
2023-04-16T05:28:52.315Z,8.15
2023-04-16T05:31:19.129Z,8.04
2023-04-16T05:33:45.862Z,8.06
2023-04-16T05:36:12.651Z,8.18
2023-04-16T05:38:39.246Z,8.33
2023-04-16T05:41:05.974Z,8.39
2023-04-16T05:43:32.814Z,8.51
2023-04-16T05:45:59.543Z,8.56
2023-04-16T05:48:26.244Z,8.72
2023-04-16T05:50:53.914Z,8.78
2023-04-16T05:53:20.639Z,8.85
2023-04-16T05:55:47.435Z,8.90
2023-04-16T05:58:14.122Z,8.91
2023-04-16T06:00:41.008Z,8.94
2023-04-16T06:03:07.830Z,9.00
2023-04-16T06:05:35.002Z,8.98
2023-04-16T06:08:01.674Z,9.01
2023-04-16T06:10:28.477Z,9.15
2023-04-16T06:12:55.261Z,9.18
2023-04-16T06:15:22.113Z,9.18
2023-04-16T06:17:49.823Z,9.22
2023-04-16T06:20:16.878Z,9.30
2023-04-16T06:22:43.606Z,9.43
2023-04-16T06:25:10.248Z,9.46
2023-04-16T06:27:37.411Z,9.43
2023-04-16T06:30:04.727Z,9.43
2023-04-16T06:32:31.456Z,9.62
2023-04-16T06:34:58.851Z,9.64
2023-04-16T06:37:25.569Z,9.66
2023-04-16T06:39:52.502Z,9.76
2023-04-16T06:42:20.036Z,9.78
2023-04-16T06:44:46.926Z,9.86
2023-04-16T06:47:13.510Z,9.89
2023-04-16T06:49:40.419Z,9.93
2023-04-16T06:52:07.487Z,10.03
2023-04-16T06:54:34.334Z,10.05
2023-04-16T06:57:02.309Z,10.13
2023-04-16T06:59:29.392Z,10.22
2023-04-16T07:01:56.666Z,10.20
2023-04-16T07:04:23.775Z,10.30
2023-04-16T07:06:50.485Z,10.43
2023-04-16T07:09:18.026Z,10.48
2023-04-16T07:11:44.830Z,10.36
2023-04-16T07:14:11.624Z,10.49
2023-04-16T07:16:38.380Z,10.50
2023-04-16T07:19:05.093Z,10.56
2023-04-16T07:21:32.137Z,10.58
2023-04-16T07:23:58.832Z,10.71
2023-04-16T07:26:25.974Z,10.67
2023-04-16T07:28:52.822Z,10.72
2023-04-16T07:31:19.523Z,10.75
2023-04-16T07:33:46.439Z,10.75
2023-04-16T07:36:13.086Z,10.82
2023-04-16T07:38:39.836Z,10.85
2023-04-16T07:41:06.530Z,10.84
2023-04-16T07:43:33.331Z,10.87
2023-04-16T07:46:00.175Z,10.90
2023-04-16T07:48:26.988Z,11.00
2023-04-16T07:50:53.608Z,11.06
2023-04-16T07:53:20.470Z,11.18
2023-04-16T07:55:47.225Z,11.22
2023-04-16T07:58:14.064Z,11.34
2023-04-16T08:00:40.822Z,11.32
2023-04-16T08:03:07.702Z,11.51
2023-04-16T08:05:34.701Z,11.69
2023-04-16T08:08:01.362Z,11.69
2023-04-16T08:10:28.426Z,11.79
2023-04-16T08:12:55.287Z,11.76
2023-04-16T08:15:21.937Z,11.77
2023-04-16T08:17:48.775Z,11.74
2023-04-16T08:20:18.514Z,11.80
2023-04-16T08:22:46.678Z,11.85
2023-04-16T08:25:13.439Z,11.99
2023-04-16T08:27:40.205Z,12.10
2023-04-16T08:30:07.924Z,12.14
2023-04-16T08:32:35.119Z,12.14
2023-04-16T08:35:01.975Z,12.23
2023-04-16T08:37:29.061Z,12.30
2023-04-16T08:39:55.994Z,12.56
2023-04-16T08:42:32.896Z,12.72
2023-04-16T08:45:15.617Z,12.82
2023-04-16T08:47:46.785Z,13.12
2023-04-16T08:50:17.957Z,13.25
2023-04-16T08:52:59.302Z,13.54
2023-04-16T08:55:50.501Z,13.60
2023-04-16T08:58:22.773Z,13.69
2023-04-16T09:00:49.849Z,13.72
2023-04-16T09:03:16.986Z,13.83
2023-04-16T09:05:44.229Z,13.78
2023-04-16T09:08:11.145Z,13.86
2023-04-16T09:10:38.172Z,13.94
2023-04-16T09:13:05.094Z,14.20
2023-04-16T09:15:34.654Z,14.33
2023-04-16T09:18:02.016Z,14.42
2023-04-16T09:20:28.675Z,14.50
2023-04-16T09:22:57.094Z,14.44
2023-04-16T09:25:25.142Z,14.57
2023-04-16T09:27:52.147Z,14.75
2023-04-16T09:30:21.904Z,14.82
2023-04-16T09:32:49.816Z,14.89
2023-04-16T09:35:20.561Z,15.14
2023-04-16T09:38:05.311Z,15.21
2023-04-16T09:40:32.080Z,15.35
2023-04-16T09:43:00.560Z,15.49
2023-04-16T09:45:32.046Z,15.31
2023-04-16T09:48:04.991Z,15.24
2023-04-16T09:50:31.840Z,15.12
2023-04-16T09:53:02.572Z,15.12
2023-04-16T09:55:29.653Z,15.26
2023-04-16T09:58:01.148Z,15.44
2023-04-16T10:00:30.066Z,15.36
2023-04-16T10:03:07.224Z,15.62
2023-04-16T10:05:34.852Z,15.68
2023-04-16T10:08:02.173Z,15.82
2023-04-16T10:10:30.568Z,15.64
2023-04-16T10:12:57.933Z,15.70
2023-04-16T10:15:25.220Z,15.82
2023-04-16T10:17:53.891Z,15.89
2023-04-16T10:20:21.298Z,16.22
2023-04-16T10:22:48.875Z,16.27
2023-04-16T10:25:16.804Z,16.22
2023-04-16T10:27:44.480Z,15.99
2023-04-16T10:30:13.101Z,15.98
2023-04-16T10:32:41.331Z,15.88
2023-04-16T10:35:08.533Z,15.88
2023-04-16T10:37:37.527Z,15.82
2023-04-16T10:40:26.280Z,15.74
2023-04-16T10:42:57.929Z,15.74
2023-04-16T10:45:32.856Z,15.85
2023-04-16T10:47:59.755Z,15.82
2023-04-16T10:50:34.941Z,15.92
2023-04-16T10:53:24.169Z,15.95
2023-04-16T10:55:58.428Z,16.04
2023-04-16T10:58:32.328Z,16.03
2023-04-16T11:01:08.115Z,16.11
2023-04-16T11:03:34.943Z,16.53
2023-04-16T11:06:12.979Z,16.81
2023-04-16T11:08:53.255Z,16.88
2023-04-16T11:11:22.252Z,16.99
2023-04-16T11:13:49.029Z,17.20
2023-04-16T11:16:16.943Z,17.23
2023-04-16T11:18:50.775Z,17.12
2023-04-16T11:21:18.504Z,17.01
2023-04-16T11:23:53.278Z,16.97
2023-04-16T11:26:25.124Z,16.97
2023-04-16T11:28:53.434Z,16.95
2023-04-16T11:31:20.651Z,16.81
2023-04-16T11:33:47.332Z,16.89
2023-04-16T11:36:14.018Z,16.98
2023-04-16T11:38:43.952Z,17.07
2023-04-16T11:41:11.223Z,17.01
2023-04-16T11:43:38.004Z,17.07
2023-04-16T11:46:20.068Z,17.13
2023-04-16T11:48:53.522Z,16.89
2023-04-16T11:51:20.707Z,16.78
2023-04-16T11:53:52.891Z,16.63
2023-04-16T11:56:30.717Z,16.66
2023-04-16T11:59:16.609Z,16.70
2023-04-16T12:01:46.448Z,16.64
2023-04-16T12:04:15.910Z,16.73
2023-04-16T12:07:11.358Z,16.87
2023-04-16T12:09:40.975Z,16.97
2023-04-16T12:12:27.791Z,17.20
2023-04-16T12:14:56.843Z,17.21
2023-04-16T12:17:24.157Z,17.03
2023-04-16T12:19:59.041Z,16.82
2023-04-16T12:22:36.057Z,16.96
2023-04-16T12:25:10.671Z,16.93
2023-04-16T12:27:51.463Z,16.95
2023-04-16T12:30:22.576Z,16.82
2023-04-16T12:32:51.685Z,16.92
2023-04-16T12:35:32.895Z,17.02
2023-04-16T12:38:00.506Z,17.08
2023-04-16T12:40:27.453Z,17.01
2023-04-16T12:42:55.045Z,17.00
2023-04-16T12:45:22.220Z,17.08
2023-04-16T12:47:50.526Z,17.14
2023-04-16T12:50:17.934Z,17.02
2023-04-16T12:52:44.949Z,17.03
2023-04-16T12:55:12.427Z,17.07
2023-04-16T12:57:39.448Z,17.04
2023-04-16T13:00:06.747Z,17.23
2023-04-16T13:02:34.237Z,17.20
2023-04-16T13:05:01.488Z,17.18
2023-04-16T13:07:28.997Z,17.38
2023-04-16T13:09:55.709Z,17.47
2023-04-16T13:12:22.456Z,17.44
2023-04-16T13:14:49.106Z,17.43
2023-04-16T13:17:15.790Z,17.50
2023-04-16T13:19:42.452Z,17.54
2023-04-16T13:22:09.324Z,17.54
2023-04-16T13:24:35.994Z,17.59
2023-04-16T13:27:02.802Z,17.54
2023-04-16T13:29:30.478Z,17.47
2023-04-16T13:31:57.856Z,17.35
2023-04-16T13:34:24.721Z,17.27
2023-04-16T13:36:51.421Z,17.39
2023-04-16T13:39:18.568Z,17.72
2023-04-16T13:41:45.692Z,17.95
2023-04-16T13:44:12.281Z,18.13
2023-04-16T13:46:39.036Z,18.28
2023-04-16T13:49:05.812Z,18.31
2023-04-16T13:51:32.828Z,18.31
2023-04-16T13:53:59.528Z,18.31
2023-04-16T13:56:26.569Z,18.43
2023-04-16T13:58:53.517Z,18.41
2023-04-16T14:01:20.610Z,18.45
2023-04-16T14:03:47.459Z,18.51
2023-04-16T14:06:15.076Z,18.64
2023-04-16T14:08:41.710Z,18.42
2023-04-16T14:11:09.174Z,18.62
2023-04-16T14:13:36.364Z,18.62
2023-04-16T14:16:03.491Z,18.65
2023-04-16T14:18:30.486Z,18.57
2023-04-16T14:20:57.540Z,18.56
2023-04-16T14:23:24.191Z,18.61
2023-04-16T14:25:51.006Z,18.75
2023-04-16T14:28:17.734Z,18.80
2023-04-16T14:30:44.541Z,18.68
2023-04-16T14:33:11.516Z,18.73
2023-04-16T14:35:38.278Z,18.79
2023-04-16T14:38:06.563Z,18.83
2023-04-16T14:40:34.852Z,18.78
2023-04-16T14:43:01.482Z,18.74
2023-04-16T14:45:30.028Z,18.56
2023-04-16T14:47:57.134Z,18.20
2023-04-16T14:50:23.929Z,17.97
2023-04-16T14:52:51.031Z,17.92
2023-04-16T14:55:17.968Z,17.91
2023-04-16T14:57:44.614Z,17.83
2023-04-16T15:00:13.327Z,17.79
2023-04-16T15:02:40.165Z,17.84
2023-04-16T15:05:09.842Z,17.84
2023-04-16T15:07:37.100Z,17.90
2023-04-16T15:10:04.520Z,17.98
2023-04-16T15:12:31.375Z,17.85
2023-04-16T15:14:59.813Z,17.69
2023-04-16T15:17:26.810Z,17.83
2023-04-16T15:19:53.589Z,18.08
2023-04-16T15:22:20.271Z,18.21
2023-04-16T15:24:47.056Z,18.35
2023-04-16T15:27:14.701Z,18.20
2023-04-16T15:29:41.639Z,18.23
2023-04-16T15:32:08.375Z,18.13
2023-04-16T15:34:35.354Z,18.08
2023-04-16T15:37:02.314Z,18.00
2023-04-16T15:39:29.531Z,18.02
2023-04-16T15:42:00.831Z,18.06
2023-04-16T15:44:31.177Z,17.91
2023-04-16T15:46:58.076Z,17.94
2023-04-16T15:49:25.444Z,17.94
2023-04-16T15:51:52.934Z,17.89
2023-04-16T15:54:19.672Z,17.90
2023-04-16T15:56:47.083Z,17.93
2023-04-16T15:59:13.846Z,18.05
2023-04-16T16:01:40.902Z,18.08
2023-04-16T16:04:08.066Z,18.18
2023-04-16T16:06:35.317Z,18.17
2023-04-16T16:09:02.077Z,17.89
2023-04-16T16:11:28.706Z,17.73
2023-04-16T16:13:55.514Z,17.62
2023-04-16T16:16:22.316Z,17.62
2023-04-16T16:18:48.993Z,17.84
2023-04-16T16:21:16.139Z,17.73
2023-04-16T16:23:42.937Z,17.58
2023-04-16T16:26:09.683Z,17.51
2023-04-16T16:28:39.296Z,17.32
2023-04-16T16:31:07.170Z,17.20
2023-04-16T16:33:33.894Z,17.15
2023-04-16T16:36:00.797Z,17.06
2023-04-16T16:38:27.897Z,17.09
2023-04-16T16:40:54.698Z,17.02
2023-04-16T16:43:21.738Z,17.00
2023-04-16T16:45:48.992Z,16.95
2023-04-16T16:48:15.566Z,16.92
2023-04-16T16:50:42.683Z,16.83
2023-04-16T16:53:09.553Z,16.84
2023-04-16T16:55:36.505Z,16.85
2023-04-16T16:58:04.510Z,16.84
2023-04-16T17:00:31.233Z,16.76
2023-04-16T17:02:58.296Z,16.68
2023-04-16T17:05:25.097Z,16.70
2023-04-16T17:07:51.686Z,16.91
2023-04-16T17:10:21.302Z,16.98
2023-04-16T17:12:49.526Z,17.13
2023-04-16T17:15:18.582Z,17.18
2023-04-16T17:17:47.838Z,17.08
2023-04-16T17:20:14.708Z,16.91
2023-04-16T17:22:42.256Z,16.76
2023-04-16T17:25:09.901Z,16.62
2023-04-16T17:27:36.890Z,16.60
2023-04-16T17:30:05.555Z,16.61
2023-04-16T17:32:32.973Z,16.49
2023-04-16T17:35:01.261Z,16.38
2023-04-16T17:37:28.655Z,16.33
2023-04-16T17:39:55.513Z,16.26
2023-04-16T17:42:22.388Z,16.10
2023-04-16T17:44:49.112Z,16.15
2023-04-16T17:47:15.936Z,16.12
2023-04-16T17:49:43.066Z,16.15
2023-04-16T17:52:09.911Z,16.09
2023-04-16T17:54:36.554Z,16.08
2023-04-16T17:57:03.608Z,16.04
2023-04-16T17:59:30.451Z,15.98
2023-04-16T18:01:57.432Z,15.93
2023-04-16T18:04:24.451Z,15.86
2023-04-16T18:06:51.358Z,15.81
2023-04-16T18:09:19.338Z,15.86
2023-04-16T18:11:46.184Z,15.72
2023-04-16T18:14:16.743Z,15.72
2023-04-16T18:16:43.810Z,15.72
2023-04-16T18:19:10.512Z,15.71
2023-04-16T18:21:37.341Z,15.66
2023-04-16T18:24:04.195Z,15.67
2023-04-16T18:26:33.257Z,15.68
2023-04-16T18:29:03.071Z,15.66
2023-04-16T18:31:30.123Z,15.64
2023-04-16T18:33:58.315Z,15.56
2023-04-16T18:36:27.058Z,15.36
2023-04-16T18:39:00.962Z,15.47
2023-04-16T18:41:29.950Z,15.42
2023-04-16T18:43:57.364Z,15.29
2023-04-16T18:46:24.556Z,15.39
2023-04-16T18:48:51.634Z,15.37
2023-04-16T18:51:18.608Z,15.37
2023-04-16T18:53:45.923Z,15.28
2023-04-16T18:56:13.257Z,15.18
2023-04-16T18:58:40.159Z,15.22
2023-04-16T19:01:11.255Z,15.13
2023-04-16T19:03:38.989Z,15.12
2023-04-16T19:06:06.665Z,15.12
2023-04-16T19:08:33.652Z,15.11
2023-04-16T19:11:00.626Z,15.09
2023-04-16T19:13:27.472Z,15.04
2023-04-16T19:16:01.666Z,14.97
2023-04-16T19:18:28.760Z,14.89
2023-04-16T19:21:02.035Z,15.03
2023-04-16T19:23:29.361Z,15.10
2023-04-16T19:25:56.773Z,15.02
2023-04-16T19:28:24.482Z,14.95
2023-04-16T19:30:52.447Z,15.11
2023-04-16T19:33:19.932Z,15.14
2023-04-16T19:35:47.444Z,15.11
2023-04-16T19:38:14.554Z,15.09
2023-04-16T19:40:45.036Z,15.05
2023-04-16T19:43:12.458Z,15.00
2023-04-16T19:45:43.976Z,14.98
2023-04-16T19:48:11.444Z,14.97
2023-04-16T19:50:42.617Z,15.00
2023-04-16T19:53:11.179Z,14.91
2023-04-16T19:55:41.915Z,14.90
2023-04-16T19:58:09.726Z,14.82
2023-04-16T20:00:38.735Z,14.95
2023-04-16T20:03:06.018Z,14.90
2023-04-16T20:05:32.997Z,14.92
2023-04-16T20:08:00.311Z,14.94
2023-04-16T20:10:28.048Z,14.91
2023-04-16T20:12:54.875Z,14.78
2023-04-16T20:15:21.841Z,14.71
2023-04-16T20:17:49.240Z,14.50
2023-04-16T20:20:16.434Z,14.40
2023-04-16T20:22:43.985Z,14.37
2023-04-16T20:25:11.623Z,14.21
2023-04-16T20:27:38.473Z,14.34
2023-04-16T20:30:06.562Z,14.32
2023-04-16T20:32:33.755Z,14.23
2023-04-16T20:35:01.990Z,14.16
2023-04-16T20:37:29.279Z,14.14
2023-04-16T20:39:57.313Z,14.10
2023-04-16T20:42:26.538Z,13.81
2023-04-16T20:44:56.643Z,13.89
2023-04-16T20:47:24.003Z,13.80
2023-04-16T20:49:52.953Z,13.79
2023-04-16T20:52:20.522Z,13.52
2023-04-16T20:54:47.899Z,13.65
2023-04-16T20:57:14.968Z,13.68
2023-04-16T20:59:41.718Z,13.65
2023-04-16T21:02:08.670Z,13.57
2023-04-16T21:04:35.564Z,13.68
2023-04-16T21:07:05.552Z,13.63
2023-04-16T21:09:36.374Z,13.78
2023-04-16T21:12:03.320Z,13.53
2023-04-16T21:14:29.897Z,13.62
2023-04-16T21:16:56.599Z,13.69
2023-04-16T21:19:23.267Z,13.57
2023-04-16T21:21:50.080Z,13.62
2023-04-16T21:24:17.217Z,13.51
2023-04-16T21:26:43.965Z,13.54
2023-04-16T21:29:11.158Z,13.55
2023-04-16T21:31:38.200Z,13.52
2023-04-16T21:34:04.886Z,13.46
2023-04-16T21:36:33.598Z,13.45
2023-04-16T21:39:00.387Z,13.47
2023-04-16T21:41:27.165Z,13.42
2023-04-16T21:43:53.912Z,13.39
2023-04-16T21:46:21.394Z,13.36
2023-04-16T21:48:48.544Z,13.37
2023-04-16T21:51:15.775Z,13.18
2023-04-16T21:53:42.487Z,13.26
2023-04-16T21:56:09.294Z,13.27
2023-04-16T21:58:35.912Z,13.28
2023-04-16T22:01:02.749Z,13.23
2023-04-16T22:03:31.060Z,13.20
2023-04-16T22:06:01.587Z,13.22
2023-04-16T22:08:29.658Z,13.24
2023-04-16T22:11:01.708Z,13.19
2023-04-16T22:13:30.140Z,13.13
2023-04-16T22:15:57.741Z,13.07
2023-04-16T22:18:25.738Z,13.01
2023-04-16T22:20:56.197Z,12.98
2023-04-16T22:23:24.226Z,12.94
2023-04-16T22:25:53.305Z,12.81
2023-04-16T22:28:20.049Z,12.84
2023-04-16T22:30:46.701Z,12.87
2023-04-16T22:33:13.465Z,12.97
2023-04-16T22:35:40.703Z,12.91
2023-04-16T22:38:07.880Z,12.91
2023-04-16T22:40:34.600Z,12.82
2023-04-16T22:43:01.413Z,12.72
2023-04-16T22:45:28.414Z,12.74
2023-04-16T22:47:55.172Z,12.62
2023-04-16T22:50:23.235Z,12.36
2023-04-16T22:52:49.994Z,12.34
2023-04-16T22:55:16.862Z,12.51
2023-04-16T22:57:43.668Z,12.51
2023-04-16T23:00:17.762Z,12.62
2023-04-16T23:02:45.352Z,12.61
2023-04-16T23:05:12.277Z,12.58
2023-04-16T23:07:39.116Z,12.58
2023-04-16T23:10:08.316Z,12.56
2023-04-16T23:12:37.322Z,12.53
2023-04-16T23:15:06.333Z,12.55
2023-04-16T23:17:34.071Z,12.50
2023-04-16T23:20:00.935Z,12.53
2023-04-16T23:22:27.874Z,12.52
2023-04-16T23:24:54.793Z,12.47
2023-04-16T23:27:21.703Z,12.49
2023-04-16T23:29:48.415Z,12.56
2023-04-16T23:32:15.163Z,12.49
2023-04-16T23:34:42.059Z,12.36
2023-04-16T23:37:09.011Z,12.34
2023-04-16T23:39:35.893Z,12.33
2023-04-16T23:42:03.108Z,12.23
2023-04-16T23:44:29.758Z,12.20
2023-04-16T23:46:57.296Z,12.08
2023-04-16T23:49:24.128Z,12.12
2023-04-16T23:51:50.878Z,11.95
2023-04-16T23:54:17.819Z,11.98
2023-04-16T23:56:44.560Z,12.01
2023-04-16T23:59:11.490Z,12.06
